Terminal Aerodrome Forecast
Issued by NWS Austin/San Antonio, TX

Home | Current Version | Previous Version | Text Only | Print | Product List | Glossary On
Versions: 1 2 3 4 5 6 7 8 9 10 11 12 13 14 15 16 17 18 19 20 21 22 23 24 25 26 27 28 29 30 31
305
FTUS44 KEWX 210139 AAA
TAFSAT
TAF AMD
KSAT 210139Z 2102/2206 14012KT P6SM OVC012
     FM211000 11010KT 5SM -TSRA BKN010CB
     FM211200 06010KT 2SM TSRA BR OVC008CB
     FM211600 03012KT 2SM -SHRA BR OVC004
     FM212000 01013G19KT 2SM -DZ BR OVC007=

USA.gov is the U.S. government's official web portal to all federal, state and local government web resources and services.